Time;durP1;ratioP1;P1;durP2;ratioP2;P2;SDS_P1;SDS_P2;PMS_P1;PMS_P2;Temp;Humidity;BMP_temperature;BMP_pressure;BME280_temperature;BME280_humidity;BME280_pressure;Samples;Min_cycle;Max_cycle;Signal;HPM_P1;HPM_P2
2023/11/12 00:00:09;;;;;;;0.00;0.00;;;;;;;7.96;59.62;98759.44;5301028;27;25964;-90
2023/11/12 00:02:34;;;;;;;0.00;0.00;;;;;;;7.82;59.61;98752.19;5301322;27;20071;-88
2023/11/12 00:05:00;;;;;;;0.00;0.00;;;;;;;7.78;59.61;98775.63;5318770;27;21079;-89
2023/11/12 00:07:25;;;;;;;0.00;0.00;;;;;;;7.88;59.62;98777.00;5300175;27;24247;-90
2023/11/12 00:09:50;;;;;;;0.00;0.00;;;;;;;7.84;59.62;98775.44;5301030;27;20345;-90
2023/11/12 00:12:16;;;;;;;0.00;0.00;;;;;;;7.70;59.61;98774.19;5319722;27;20075;-89
2023/11/12 00:14:45;;;;;;;0.00;0.00;;;;;;;7.70;59.61;98775.94;5300694;27;20521;-88
2023/11/12 00:17:13;;;;;;;0.00;0.00;;;;;;;7.75;59.60;98776.59;5300918;27;20084;-89
2023/11/12 00:19:39;;;;;;;0.00;0.00;;;;;;;7.70;59.61;98781.94;5282854;27;20071;-88
2023/11/12 00:22:05;;;;;;;0.00;0.00;;;;;;;7.63;59.60;98783.09;5300997;27;20052;-87
2023/11/12 00:24:31;;;;;;;0.00;0.00;;;;;;;7.45;59.58;98781.13;5300971;27;20066;-89
2023/11/12 00:26:56;;;;;;;0.03;0.03;;;;;;;7.44;59.59;98786.38;5301241;27;20056;-89
2023/11/12 00:29:22;;;;;;;0.00;0.00;;;;;;;7.39;59.58;98787.38;5299876;27;35417;-89
2023/11/12 00:31:47;;;;;;;0.00;0.00;;;;;;;7.42;59.59;98791.59;5301002;27;20069;-88
2023/11/12 00:34:12;;;;;;;0.00;0.00;;;;;;;7.42;59.59;98782.97;5319296;27;20326;-89
2023/11/12 00:36:42;;;;;;;0.45;0.30;;;;;;;7.56;59.60;98789.34;5318851;27;20077;-89
2023/11/12 00:39:09;;;;;;;0.03;0.03;;;;;;;7.54;59.59;98785.97;5301012;27;20053;-89
2023/11/12 00:41:36;;;;;;;0.00;0.00;;;;;;;7.49;59.59;98798.25;5319323;27;20037;-89
2023/11/12 00:44:02;;;;;;;0.00;0.00;;;;;;;7.52;59.59;98795.53;5300814;27;20080;-90
2023/11/12 00:46:27;;;;;;;0.30;0.30;;;;;;;7.66;59.60;98795.91;5301128;27;20057;-91
2023/11/12 00:48:52;;;;;;;0.10;0.10;;;;;;;7.58;59.59;98805.72;5300423;27;31152;-91
2023/11/12 00:51:18;;;;;;;0.00;0.00;;;;;;;7.38;59.58;98808.12;5300906;27;20069;-88
2023/11/12 00:53:45;;;;;;;0.00;0.00;;;;;;;7.47;59.59;98801.78;5300988;27;20459;-89
2023/11/12 00:56:10;;;;;;;0.00;0.00;;;;;;;7.54;59.59;98803.25;5301077;27;20054;-88
2023/11/12 00:58:35;;;;;;;0.00;0.00;;;;;;;7.57;59.60;98804.03;5300468;27;31149;-89
2023/11/12 01:01:01;;;;;;;0.00;0.00;;;;;;;7.46;59.58;98806.13;5300428;27;29118;-88
2023/11/12 01:03:32;;;;;;;0.00;0.00;;;;;;;7.58;59.59;98807.47;5301057;27;20095;-89
2023/11/12 01:05:57;;;;;;;0.00;0.00;;;;;;;7.51;59.59;98811.13;5300716;27;20089;-89
2023/11/12 01:08:23;;;;;;;0.00;0.00;;;;;;;7.38;59.59;98821.09;5301373;27;20102;-89
2023/11/12 01:10:48;;;;;;;0.00;0.00;;;;;;;7.41;59.59;98822.72;5300955;27;20068;-89
2023/11/12 01:13:14;;;;;;;0.00;0.00;;;;;;;7.29;59.58;98819.63;5300952;27;20092;-89
2023/11/12 01:15:42;;;;;;;0.00;0.00;;;;;;;7.39;59.58;98817.59;5305209;27;22987;-89
2023/11/12 01:18:07;;;;;;;0.00;0.00;;;;;;;7.26;59.58;98811.13;5303349;27;20049;-89
2023/11/12 01:20:33;;;;;;;0.00;0.00;;;;;;;7.38;59.58;98824.53;5300829;27;20096;-89
2023/11/12 01:23:17;;;;;;;0.00;0.00;;;;;;;7.38;59.58;98823.66;5300465;27;20120;-89
2023/11/12 01:25:42;;;;;;;0.00;0.00;;;;;;;7.38;59.58;98821.94;5319035;27;20086;-89
2023/11/12 01:28:08;;;;;;;0.15;0.15;;;;;;;7.33;59.58;98831.59;5299753;27;29928;-89
2023/11/12 01:30:33;;;;;;;0.00;0.00;;;;;;;7.22;59.58;98828.50;5300313;27;20063;-88
2023/11/12 01:32:59;;;;;;;0.00;0.00;;;;;;;7.33;59.58;98825.53;5318156;27;25643;-88
2023/11/12 01:35:25;;;;;;;0.05;0.05;;;;;;;7.34;59.59;98816.91;5300221;27;20061;-88
2023/11/12 01:37:50;;;;;;;0.00;0.00;;;;;;;7.36;59.58;98820.28;5300576;27;20356;-88
2023/11/12 01:40:16;;;;;;;0.00;0.00;;;;;;;7.29;59.58;98817.03;5318590;27;31359;-88
2023/11/12 01:42:45;;;;;;;0.00;0.00;;;;;;;7.23;59.57;98830.19;5300584;27;20061;-88
2023/11/12 01:45:11;;;;;;;0.00;0.00;;;;;;;7.18;59.58;98821.75;5301017;27;20029;-89
2023/11/12 01:47:37;;;;;;;0.37;0.25;;;;;;;7.21;59.58;98821.63;5300986;27;20113;-88
2023/11/12 01:50:03;;;;;;;0.00;0.00;;;;;;;7.24;59.58;98811.19;5301011;27;20395;-89
2023/11/12 01:52:29;;;;;;;0.00;0.00;;;;;;;7.24;59.57;98831.03;5300676;27;20057;-88
2023/11/12 01:54:54;;;;;;;0.00;0.00;;;;;;;7.25;59.58;98833.56;5319499;27;20053;-89
2023/11/12 01:57:20;;;;;;;0.00;0.00;;;;;;;7.30;59.58;98825.66;5318777;27;27002;-89
2023/11/12 01:59:45;;;;;;;0.00;0.00;;;;;;;7.30;59.58;98833.41;5319470;27;20069;-90
2023/11/12 02:02:10;;;;;;;0.00;0.00;;;;;;;7.29;59.58;98837.75;5281943;27;30429;-89
2023/11/12 02:04:36;;;;;;;0.00;0.00;;;;;;;7.11;59.57;98832.34;5301183;27;20403;-89
2023/11/12 02:07:02;;;;;;;0.00;0.00;;;;;;;7.14;59.57;98830.50;5282790;27;20098;-90
2023/11/12 02:09:28;;;;;;;0.00;0.00;;;;;;;7.21;59.58;98836.31;5301238;27;20049;-90
2023/11/12 02:11:54;;;;;;;0.00;0.00;;;;;;;7.25;59.59;98837.91;5282655;27;20061;-89
2023/11/12 02:14:20;;;;;;;0.03;0.03;;;;;;;7.30;59.58;98825.66;5300986;27;20163;-89
2023/11/12 02:16:46;;;;;;;0.08;0.08;;;;;;;7.21;59.58;98844.94;5300864;27;20059;-89
2023/11/12 02:19:30;;;;;;;0.00;0.00;;;;;;;7.36;59.59;98844.44;5300832;27;20049;-89
2023/11/12 02:21:56;;;;;;;0.00;0.00;;;;;;;7.32;59.58;98849.75;5300476;27;20083;-89
2023/11/12 02:24:23;;;;;;;0.00;0.00;;;;;;;7.30;59.58;98857.56;5300026;27;30431;-89
2023/11/12 02:26:49;;;;;;;0.00;0.00;;;;;;;7.23;59.57;98863.00;5301334;27;20183;-89
2023/11/12 02:29:16;;;;;;;0.00;0.00;;;;;;;7.18;59.58;98859.72;5300406;27;20414;-90
2023/11/12 02:31:41;;;;;;;0.00;0.00;;;;;;;7.05;59.57;98862.69;5319196;27;20728;-90
2023/11/12 02:34:07;;;;;;;0.10;0.10;;;;;;;7.36;59.58;98870.31;5319422;27;20050;-89
2023/11/12 02:36:34;;;;;;;0.00;0.00;;;;;;;7.20;59.57;98869.12;5299851;27;34610;-89
2023/11/12 02:39:00;;;;;;;0.00;0.00;;;;;;;7.09;59.56;98868.59;5301038;27;20148;-89
2023/11/12 02:41:25;;;;;;;0.00;0.00;;;;;;;7.12;59.57;98868.53;5319270;27;20395;-89
2023/11/12 02:43:52;;;;;;;0.00;0.00;;;;;;;7.11;59.57;98878.94;5318302;27;34142;-89
2023/11/12 02:46:17;;;;;;;0.10;0.10;;;;;;;7.13;59.57;98879.72;5309680;27;20066;-89
2023/11/12 02:49:05;;;;;;;0.03;0.03;;;;;;;7.18;59.58;98883.84;5303718;27;25082;-89
2023/11/12 02:51:30;;;;;;;0.00;0.00;;;;;;;7.20;59.57;98886.41;5301184;27;20061;-90
2023/11/12 02:53:56;;;;;;;0.00;0.00;;;;;;;7.18;59.58;98891.62;5318881;27;22673;-89
2023/11/12 02:56:22;;;;;;;0.00;0.00;;;;;;;7.09;59.58;98887.56;5318938;27;20053;-89
2023/11/12 02:58:48;;;;;;;0.00;0.00;;;;;;;6.92;59.56;98886.41;5300005;27;28943;-90
2023/11/12 03:01:14;;;;;;;0.30;0.30;;;;;;;6.96;59.57;98893.19;5300947;27;20071;-89
2023/11/12 03:03:39;;;;;;;0.08;0.08;;;;;;;7.06;59.57;98904.94;5300759;27;20065;-90
2023/11/12 03:06:05;;;;;;;0.00;0.00;;;;;;;7.15;59.57;98896.91;5299914;27;20049;-89
2023/11/12 03:08:30;;;;;;;0.40;0.40;;;;;;;7.08;59.56;98908.31;5299496;27;31479;-90
2023/11/12 03:10:56;;;;;;;0.10;0.10;;;;;;;7.15;59.57;98909.84;5299563;27;34163;-89
2023/11/12 03:13:22;;;;;;;0.00;0.00;;;;;;;7.12;59.58;98907.34;5300418;27;20074;-88
2023/11/12 03:15:47;;;;;;;3.30;0.47;;;;;;;6.81;59.56;98904.00;5300204;27;20398;-89
2023/11/12 03:18:13;;;;;;;0.00;0.00;;;;;;;6.76;59.55;98917.06;5299403;27;31490;-88
2023/11/12 03:20:38;;;;;;;0.00;0.00;;;;;;;6.71;59.55;98911.19;5300148;27;20822;-89
2023/11/12 03:23:03;;;;;;;0.00;0.00;;;;;;;6.59;59.54;98916.72;5318470;27;29541;-89
2023/11/12 03:25:29;;;;;;;0.00;0.00;;;;;;;6.59;59.54;98920.16;5299545;27;30824;-89
2023/11/12 03:27:54;;;;;;;0.00;0.00;;;;;;;6.56;59.54;98920.25;5300916;27;20101;-89
2023/11/12 03:30:20;;;;;;;0.03;0.03;;;;;;;6.56;59.53;98920.25;5319041;27;20065;-89
2023/11/12 03:32:45;;;;;;;1.37;1.27;;;;;;;6.57;59.53;98915.91;5319480;27;20099;-88
2023/11/12 03:35:11;;;;;;;0.00;0.00;;;;;;;6.44;59.53;98918.87;5301727;27;20063;-89
2023/11/12 03:37:37;;;;;;;0.00;0.00;;;;;;;6.28;59.53;98917.59;5301499;27;20374;-89
2023/11/12 03:40:04;;;;;;;0.00;0.00;;;;;;;6.51;59.54;98919.53;5301469;27;20080;-89
2023/11/12 03:42:29;;;;;;;0.00;0.00;;;;;;;6.35;59.54;98921.69;5301722;27;20065;-89
2023/11/12 03:44:56;;;;;;;0.10;0.10;;;;;;;6.40;59.53;98917.28;5300622;27;29817;-89
2023/11/12 03:47:23;;;;;;;0.00;0.00;;;;;;;6.31;59.52;98912.34;5301628;27;20505;-90
2023/11/12 03:49:48;;;;;;;0.05;0.05;;;;;;;6.45;59.53;98910.22;5301408;27;20065;-88
2023/11/12 03:52:14;;;;;;;0.10;0.10;;;;;;;6.41;59.53;98907.78;5301606;27;20075;-89
2023/11/12 03:54:39;;;;;;;0.03;0.03;;;;;;;6.46;59.54;98921.41;5301744;27;20716;-89
2023/11/12 03:57:05;;;;;;;0.05;0.05;;;;;;;6.38;59.53;98913.84;5301471;27;20049;-89
2023/11/12 03:59:30;;;;;;;0.03;0.03;;;;;;;6.64;59.54;98920.03;5319824;27;20045;-88
2023/11/12 04:01:55;;;;;;;0.00;0.00;;;;;;;6.64;59.54;98922.62;5301514;27;20377;-89
2023/11/12 04:04:21;;;;;;;0.00;0.00;;;;;;;6.53;59.54;98925.50;5300615;27;25937;-88
2023/11/12 04:06:46;;;;;;;0.00;0.00;;;;;;;6.51;59.54;98927.28;5318483;27;32469;-88
2023/11/12 04:09:12;;;;;;;0.37;0.37;;;;;;;6.54;59.54;98927.19;5301290;27;20080;-89
2023/11/12 04:11:40;;;;;;;0.17;0.17;;;;;;;6.44;59.54;98930.94;5300082;27;29833;-89
2023/11/12 04:14:05;;;;;;;0.00;0.00;;;;;;;6.60;59.55;98936.50;5301445;27;20053;-89
2023/11/12 04:16:33;;;;;;;0.00;0.00;;;;;;;6.61;59.54;98936.47;5306230;27;20402;-89
2023/11/12 04:18:58;;;;;;;0.75;0.30;;;;;;;6.53;59.54;98935.00;5305998;27;20069;-88
2023/11/12 04:21:24;;;;;;;0.00;0.00;;;;;;;6.45;59.54;98940.41;5318402;27;30595;-88
2023/11/12 04:23:49;;;;;;;0.25;0.25;;;;;;;6.54;59.54;98945.28;5319301;27;20099;-88
2023/11/12 04:26:15;;;;;;;0.00;0.00;;;;;;;6.47;59.54;98941.19;5299931;27;31531;-88
2023/11/12 04:28:40;;;;;;;0.00;0.00;;;;;;;6.46;59.54;98952.44;5300691;27;20061;-88
2023/11/12 04:31:05;;;;;;;0.00;0.00;;;;;;;6.36;59.53;98954.41;5318467;27;24051;-88
2023/11/12 04:33:31;;;;;;;0.00;0.00;;;;;;;6.41;59.53;98954.31;5318322;27;36143;-88
2023/11/12 04:35:57;;;;;;;0.00;0.00;;;;;;;6.40;59.53;98950.03;5318324;27;20083;-89
2023/11/12 04:38:22;;;;;;;0.00;0.00;;;;;;;6.49;59.54;98956.66;5300695;27;20062;-90
2023/11/12 04:40:48;;;;;;;0.00;0.00;;;;;;;6.39;59.53;98951.75;5300746;27;20092;-88
2023/11/12 04:43:16;;;;;;;21.92;1.20;;;;;;;6.50;59.54;98959.19;5319092;27;20067;-88
2023/11/12 04:45:42;;;;;;;0.00;0.00;;;;;;;6.41;59.53;98955.16;5282230;27;20086;-88
2023/11/12 04:48:08;;;;;;;0.00;0.00;;;;;;;6.25;59.52;98958.19;5300718;27;20069;-88
2023/11/12 04:50:33;;;;;;;0.00;0.00;;;;;;;6.25;59.52;98953.88;5300887;27;20075;-89
2023/11/12 04:52:59;;;;;;;0.43;0.43;;;;;;;6.29;59.53;98962.38;5318471;27;34062;-90
2023/11/12 04:55:24;;;;;;;0.00;0.00;;;;;;;6.22;59.53;98959.13;5300692;27;20108;-88
2023/11/12 04:57:49;;;;;;;0.22;0.22;;;;;;;6.43;59.54;98962.84;5319258;27;20052;-89
2023/11/12 05:00:16;;;;;;;0.00;0.00;;;;;;;6.44;59.54;98965.41;5300082;27;25157;-89
2023/11/12 05:02:42;;;;;;;0.00;0.00;;;;;;;6.42;59.52;98969.78;5301038;27;20112;-89
2023/11/12 05:05:07;;;;;;;2.00;1.55;;;;;;;6.34;59.53;98974.28;5301178;27;20048;-88
2023/11/12 05:07:32;;;;;;;0.00;0.00;;;;;;;6.34;59.52;98979.44;5300878;27;20107;-88
2023/11/12 05:09:58;;;;;;;0.00;0.00;;;;;;;6.24;59.52;98984.91;5300294;27;24871;-88
2023/11/12 05:12:24;;;;;;;0.00;0.00;;;;;;;6.33;59.53;98982.91;5300544;27;20104;-88
2023/11/12 05:14:50;;;;;;;0.00;0.00;;;;;;;6.25;59.52;98989.19;5300824;27;20064;-88
2023/11/12 05:17:15;;;;;;;0.90;0.20;;;;;;;6.23;59.52;98986.66;5300782;27;20101;-89
2023/11/12 05:19:40;;;;;;;0.00;0.00;;;;;;;6.33;59.53;98982.91;5300241;27;32014;-89
2023/11/12 05:22:06;;;;;;;0.00;0.00;;;;;;;6.31;59.53;98983.84;5300153;27;32097;-88
2023/11/12 05:24:31;;;;;;;0.00;0.00;;;;;;;6.37;59.53;98987.13;5300205;27;26616;-89
2023/11/12 05:26:57;;;;;;;0.00;0.00;;;;;;;6.43;59.53;98981.81;5319384;27;20099;-89
2023/11/12 05:29:22;;;;;;;0.10;0.10;;;;;;;6.37;59.53;98983.69;5300187;27;25911;-88
2023/11/12 05:31:47;;;;;;;0.00;0.00;;;;;;;6.28;59.52;98986.53;5299987;27;33745;-90
2023/11/12 05:34:14;;;;;;;0.00;0.00;;;;;;;6.33;59.52;98980.34;5300945;27;20104;-88
2023/11/12 05:36:40;;;;;;;0.25;0.25;;;;;;;6.34;59.53;98982.03;5318917;27;20049;-88
2023/11/12 05:39:05;;;;;;;0.15;0.15;;;;;;;6.24;59.52;98990.94;5319344;27;20052;-89
2023/11/12 05:41:30;;;;;;;0.00;0.00;;;;;;;6.27;59.52;98995.16;5300358;27;22947;-89
2023/11/12 05:43:56;;;;;;;0.00;0.00;;;;;;;6.33;59.53;98997.59;5300445;27;20089;-89
2023/11/12 05:46:21;;;;;;;0.00;0.00;;;;;;;6.31;59.52;99002.78;5300860;27;20115;-88
2023/11/12 05:48:47;;;;;;;0.00;0.00;;;;;;;6.37;59.53;99015.53;5309886;27;33776;-89
2023/11/12 05:51:12;;;;;;;0.43;0.43;;;;;;;6.34;59.52;99010.47;5300521;27;29524;-88
2023/11/12 05:53:37;;;;;;;0.00;0.00;;;;;;;6.40;59.53;99012.06;5299883;27;33615;-89
2023/11/12 05:56:03;;;;;;;0.10;0.10;;;;;;;6.28;59.53;99013.22;5300361;27;20127;-88
2023/11/12 05:58:29;;;;;;;0.25;0.25;;;;;;;6.32;59.53;99013.97;5319421;27;20057;-88
2023/11/12 06:00:55;;;;;;;0.00;0.00;;;;;;;6.34;59.52;99018.22;5300644;27;20698;-90
2023/11/12 06:03:24;;;;;;;0.00;0.00;;;;;;;6.40;59.53;99014.66;5300753;27;20049;-91
2023/11/12 06:05:49;;;;;;;0.15;0.08;;;;;;;6.36;59.53;99018.19;5300053;27;29262;-90
2023/11/12 06:08:14;;;;;;;0.17;0.17;;;;;;;6.20;59.52;99024.66;5299854;27;36638;-91
2023/11/12 06:10:43;;;;;;;0.10;0.10;;;;;;;6.18;59.52;99027.28;5300600;27;20338;-89
2023/11/12 06:13:11;;;;;;;0.00;0.00;;;;;;;6.22;59.52;99022.88;5301046;27;20120;-88
2023/11/12 06:15:36;;;;;;;0.00;0.00;;;;;;;6.33;59.52;99036.34;5300596;27;20116;-87
2023/11/12 06:18:03;;;;;;;0.05;0.05;;;;;;;6.36;59.54;99038.84;5300207;27;21037;-86
2023/11/12 06:20:28;;;;;;;0.08;0.08;;;;;;;6.32;59.53;99039.81;5318971;27;20067;-88
2023/11/12 06:22:56;;;;;;;0.32;0.32;;;;;;;6.40;59.53;99043.94;5301096;27;20394;-87
2023/11/12 06:25:22;;;;;;;0.00;0.00;;;;;;;6.33;59.52;99039.78;5301023;27;20068;-87
2023/11/12 06:27:47;;;;;;;0.00;0.00;;;;;;;6.40;59.53;99041.34;5319023;27;20052;-87
2023/11/12 06:30:13;;;;;;;0.00;0.00;;;;;;;6.30;59.53;99042.44;5283669;27;30677;-87
2023/11/12 06:32:38;;;;;;;0.00;0.00;;;;;;;6.27;59.52;99037.38;5300344;27;27200;-87
2023/11/12 06:35:04;;;;;;;0.13;0.10;;;;;;;6.35;59.54;99037.16;5300386;27;27938;-87
2023/11/12 06:37:29;;;;;;;0.00;0.00;;;;;;;6.44;59.54;99037.78;5301140;27;20106;-88
2023/11/12 06:39:55;;;;;;;0.05;0.05;;;;;;;6.63;59.54;99043.31;5300549;27;20059;-87
2023/11/12 06:42:21;;;;;;;0.00;0.00;;;;;;;6.61;59.55;99050.22;5300282;27;26449;-87
2023/11/12 06:44:46;;;;;;;0.00;0.00;;;;;;;6.65;59.54;99045.84;5300810;27;20097;-88
2023/11/12 06:47:11;;;;;;;0.10;0.10;;;;;;;6.62;59.54;99049.34;5300968;27;20056;-88
2023/11/12 06:49:37;;;;;;;0.13;0.13;;;;;;;6.73;59.56;99052.50;5300486;27;20096;-88
2023/11/12 06:52:02;;;;;;;11.10;0.75;;;;;;;6.82;59.56;99053.97;5299481;27;34953;-87
2023/11/12 06:54:28;;;;;;;0.00;0.00;;;;;;;6.85;59.56;99050.44;5300600;27;20124;-87
2023/11/12 06:56:54;;;;;;;0.00;0.00;;;;;;;6.95;59.57;99052.75;5299725;27;26639;-88
2023/11/12 06:59:20;;;;;;;0.00;0.00;;;;;;;7.08;59.57;99050.63;5300673;27;20422;-87
2023/11/12 07:01:46;;;;;;;0.52;0.30;;;;;;;7.12;59.57;99052.28;5300513;27;20063;-87
2023/11/12 07:04:12;;;;;;;2.15;0.37;;;;;;;7.12;59.57;99059.19;5301811;27;20065;-87
2023/11/12 07:06:37;;;;;;;0.75;0.75;;;;;;;7.08;59.57;99061.84;5301534;27;20132;-88
2023/11/12 07:09:02;;;;;;;0.00;0.00;;;;;;;7.18;59.58;99061.59;5301454;27;20098;-87
2023/11/12 07:11:28;;;;;;;0.00;0.00;;;;;;;7.28;59.58;99053.50;5301457;27;31813;-89
2023/11/12 07:13:53;;;;;;;0.00;0.00;;;;;;;7.16;59.57;99053.03;5300930;27;26280;-88
2023/11/12 07:16:20;;;;;;;0.20;0.13;;;;;;;7.37;59.59;99058.41;5300088;27;33575;-87
2023/11/12 07:18:45;;;;;;;0.10;0.10;;;;;;;7.45;59.59;99060.78;5304184;27;20052;-87
2023/11/12 07:21:12;;;;;;;0.00;0.00;;;;;;;7.49;59.59;99056.34;5305976;27;20055;-91
2023/11/12 07:23:38;;;;;;;0.00;0.00;;;;;;;7.49;59.60;99067.53;5302055;27;20405;-89
2023/11/12 07:26:03;;;;;;;0.00;0.00;;;;;;;7.48;59.60;99062.41;5300712;27;20061;-88
2023/11/12 07:28:29;;;;;;;0.00;0.00;;;;;;;7.64;59.60;99067.09;5301460;27;20045;-88
2023/11/12 07:30:54;;;;;;;0.00;0.00;;;;;;;7.87;59.61;99066.38;5302392;26;20068;-88
2023/11/12 07:33:21;;;;;;;0.00;0.00;;;;;;;7.87;59.61;99071.53;5307971;26;23966;-88
2023/11/12 07:35:48;;;;;;;0.00;0.00;;;;;;;7.94;59.62;99070.44;5326957;26;20345;-87
2023/11/12 07:38:14;;;;;;;0.20;0.20;;;;;;;7.96;59.61;99073.84;5308961;26;20048;-88
2023/11/12 07:40:41;;;;;;;0.08;0.08;;;;;;;8.20;59.63;99079.97;5308598;26;20045;-87
2023/11/12 07:43:06;;;;;;;0.00;0.00;;;;;;;8.09;59.63;99078.63;5308627;26;20101;-88
2023/11/12 07:45:32;;;;;;;1.67;0.35;;;;;;;8.27;59.63;99080.59;5308701;26;20367;-87
2023/11/12 07:47:57;;;;;;;0.20;0.20;;;;;;;8.20;59.63;99079.13;5326848;26;20625;-88
2023/11/12 07:50:23;;;;;;;0.10;0.10;;;;;;;8.35;59.64;99073.47;5308524;26;20089;-88
2023/11/12 07:52:49;;;;;;;0.00;0.00;;;;;;;8.40;59.64;99086.25;5308732;26;20311;-87
2023/11/12 07:55:15;;;;;;;0.00;0.00;;;;;;;8.33;59.64;99088.19;5308510;26;20125;-88
2023/11/12 07:57:40;;;;;;;0.28;0.08;;;;;;;8.45;59.65;99092.13;5307779;26;20102;-87
2023/11/12 08:00:06;;;;;;;0.08;0.08;;;;;;;8.51;59.66;99097.97;5306967;26;32833;-87
2023/11/12 08:02:32;;;;;;;0.00;0.00;;;;;;;8.69;59.66;99093.87;5307505;26;20074;-86
2023/11/12 08:04:57;;;;;;;0.00;0.00;;;;;;;8.71;59.66;99086.91;5307221;26;23208;-86
2023/11/12 08:07:22;;;;;;;0.00;0.00;;;;;;;8.70;59.66;99093.00;5326311;26;20068;-87
2023/11/12 08:09:48;;;;;;;0.15;0.05;;;;;;;8.80;59.66;99102.16;5307452;26;23536;-87
2023/11/12 08:12:14;;;;;;;0.00;0.00;;;;;;;8.81;59.66;99103.00;5307834;26;20064;-87
2023/11/12 08:14:40;;;;;;;0.00;0.00;;;;;;;9.05;59.68;99096.94;5326362;26;20402;-86
2023/11/12 08:17:05;;;;;;;0.00;0.00;;;;;;;9.20;59.69;99100.72;5307770;26;20044;-87
2023/11/12 08:19:31;;;;;;;0.20;0.20;;;;;;;8.98;59.68;99111.03;5307862;26;20404;-86
2023/11/12 08:21:56;;;;;;;0.00;0.00;;;;;;;8.93;59.67;99112.94;5307021;26;33785;-87
2023/11/12 08:24:22;;;;;;;0.00;0.00;;;;;;;8.98;59.68;99100.63;5308121;26;20057;-87
2023/11/12 08:26:47;;;;;;;0.00;0.00;;;;;;;9.01;59.67;99103.16;5306769;26;32959;-87
2023/11/12 08:29:12;;;;;;;0.00;0.00;;;;;;;9.01;59.68;99110.09;5307781;26;20102;-87
2023/11/12 08:31:38;;;;;;;2.10;0.40;;;;;;;9.02;59.68;99107.44;5307655;26;20064;-87
2023/11/12 08:34:04;;;;;;;0.00;0.00;;;;;;;9.29;59.70;99118.56;5307565;26;20547;-87
2023/11/12 08:36:29;;;;;;;0.00;0.00;;;;;;;9.44;59.70;99111.94;5289408;26;20092;-87
2023/11/12 08:38:55;;;;;;;0.10;0.10;;;;;;;9.45;59.70;99122.28;5325818;26;20531;-87
2023/11/12 08:41:21;;;;;;;0.00;0.00;;;;;;;9.64;59.70;99106.00;5307409;26;20410;-87
2023/11/12 08:43:46;;;;;;;0.77;0.43;;;;;;;9.53;59.70;99111.63;5325878;26;20167;-85
2023/11/12 08:46:15;;;;;;;0.00;0.00;;;;;;;9.50;59.70;99117.78;5307620;26;20071;-86
2023/11/12 08:48:42;;;;;;;0.00;0.00;;;;;;;9.51;59.71;99118.63;5289951;26;20052;-86
2023/11/12 08:51:09;;;;;;;0.00;0.00;;;;;;;9.46;59.70;99123.13;5308974;26;20702;-87
2023/11/12 08:53:36;;;;;;;0.00;0.00;;;;;;;9.57;59.71;99128.78;5308014;26;20067;-87
2023/11/12 08:56:02;;;;;;;1.45;0.90;;;;;;;9.61;59.71;99129.50;5289425;26;20108;-87
2023/11/12 08:58:28;;;;;;;0.68;0.68;;;;;;;9.67;59.71;99152.66;5307631;26;20112;-87
2023/11/12 09:00:54;;;;;;;0.25;0.25;;;;;;;9.64;59.72;99153.63;5326099;26;20056;-86
2023/11/12 09:03:19;;;;;;;0.10;0.10;;;;;;;9.48;59.70;99142.97;5307393;26;20060;-87
2023/11/12 09:05:45;;;;;;;0.00;0.00;;;;;;;9.75;59.72;99150.62;5306966;26;20052;-88
2023/11/12 09:08:10;;;;;;;0.50;0.32;;;;;;;9.91;59.72;99143.91;5307491;26;20052;-88
2023/11/12 09:10:35;;;;;;;0.00;0.00;;;;;;;9.83;59.72;99149.41;5306846;26;20126;-85
2023/11/12 09:13:01;;;;;;;0.00;0.00;;;;;;;9.95;59.73;99145.50;5307141;26;20287;-85
2023/11/12 09:15:26;;;;;;;0.15;0.00;;;;;;;9.96;59.72;99147.19;5307004;26;20526;-85
2023/11/12 09:17:53;;;;;;;0.10;0.10;;;;;;;9.89;59.73;99148.31;5303894;26;37103;-86
2023/11/12 09:20:19;;;;;;;0.00;0.00;;;;;;;10.24;59.75;99149.59;5305893;26;20057;-86
2023/11/12 09:22:44;;;;;;;0.00;0.00;;;;;;;10.39;59.75;99148.94;5305721;26;20075;-86
2023/11/12 09:25:11;;;;;;;0.05;0.03;;;;;;;10.56;59.77;99150.84;5305648;26;20132;-87
2023/11/12 09:27:36;;;;;;;0.00;0.00;;;;;;;10.49;59.76;99144.22;5306689;26;20063;-88
2023/11/12 09:30:03;;;;;;;0.00;0.00;;;;;;;10.27;59.75;99148.59;5306206;26;20060;-86
2023/11/12 09:32:28;;;;;;;1.02;0.93;;;;;;;10.21;59.74;99141.91;5306181;26;20064;-87
2023/11/12 09:34:54;;;;;;;0.20;0.20;;;;;;;10.19;59.75;99150.66;5324084;26;22983;-87
2023/11/12 09:37:19;;;;;;;0.00;0.00;;;;;;;10.30;59.74;99143.28;5306005;26;28614;-88
2023/11/12 09:39:44;;;;;;;1.08;0.98;;;;;;;10.43;59.75;99142.72;5306382;26;20083;-86
2023/11/12 09:42:12;;;;;;;0.17;0.17;;;;;;;10.22;59.74;99154.00;5305868;26;30410;-88
2023/11/12 09:44:39;;;;;;;0.00;0.00;;;;;;;10.37;59.75;99155.97;5306947;26;20056;-87
2023/11/12 09:47:25;;;;;;;0.00;0.00;;;;;;;10.51;59.76;99163.22;5306548;26;20044;-87
2023/11/12 09:49:51;;;;;;;0.00;0.00;;;;;;;10.60;59.76;99165.44;5289222;26;20115;-86
2023/11/12 09:52:16;;;;;;;0.00;0.00;;;;;;;10.65;59.77;99165.28;5306110;26;20472;-87
2023/11/12 09:54:41;;;;;;;0.00;0.00;;;;;;;10.68;59.76;99159.94;5305392;26;32311;-87
2023/11/12 09:57:07;;;;;;;0.68;0.35;;;;;;;10.77;59.78;99152.56;5323160;26;32444;-85
2023/11/12 09:59:32;;;;;;;0.00;0.00;;;;;;;10.79;59.78;99154.25;5305592;26;20080;-85
2023/11/12 10:01:58;;;;;;;0.10;0.10;;;;;;;10.63;59.77;99148.84;5305464;26;20109;-85
2023/11/12 10:04:23;;;;;;;0.28;0.28;;;;;;;10.76;59.77;99143.06;5304967;26;27280;-85
2023/11/12 10:06:49;;;;;;;0.20;0.20;;;;;;;10.81;59.78;99150.69;5305740;26;20049;-85
2023/11/12 10:09:25;;;;;;;0.10;0.10;;;;;;;10.91;59.78;99152.00;5305686;26;20075;-85
2023/11/12 10:11:50;;;;;;;0.10;0.10;;;;;;;10.97;59.78;99153.47;5305988;26;20061;-86
2023/11/12 10:14:16;;;;;;;0.20;0.20;;;;;;;10.87;59.78;99139.16;5322877;26;20098;-86
2023/11/12 10:16:41;;;;;;;0.00;0.00;;;;;;;10.92;59.79;99145.88;5305405;26;20723;-85
2023/11/12 10:19:13;;;;;;;0.00;0.00;;;;;;;11.09;59.79;99145.13;5307500;26;20087;-86
2023/11/12 10:21:55;;;;;;;0.00;0.00;;;;;;;11.23;59.80;99155.78;5308639;26;20135;-85
2023/11/12 10:24:21;;;;;;;0.03;0.03;;;;;;;11.25;59.80;99146.16;5305601;26;20056;-86
2023/11/12 10:26:46;;;;;;;0.35;0.32;;;;;;;11.41;59.81;99150.69;5305513;26;20420;-86
2023/11/12 10:29:21;;;;;;;0.00;0.00;;;;;;;11.49;59.81;99148.56;5304796;26;25011;-85
2023/11/12 10:31:47;;;;;;;0.00;0.00;;;;;;;11.60;59.83;99152.41;5287511;26;20064;-86
2023/11/12 10:34:14;;;;;;;0.00;0.00;;;;;;;11.63;59.82;99151.41;5324337;26;20067;-85
2023/11/12 10:36:39;;;;;;;1.70;0.20;;;;;;;11.96;59.84;99149.00;5324046;26;20052;-86
2023/11/12 10:39:09;;;;;;;0.00;0.00;;;;;;;11.92;59.84;99157.91;5305313;26;20087;-85
2023/11/12 10:41:35;;;;;;;;;;;;;;;12.00;59.84;99155.78;5306415;26;20078;-86
2023/11/12 10:44:01;;;;;;;0.40;0.40;;;;;;;12.06;59.85;99150.25;5305204;26;19964;-84
2023/11/12 10:46:26;;;;;;;0.05;0.05;;;;;;;11.97;59.84;99156.78;5305673;26;20078;-86
2023/11/12 10:48:52;;;;;;;0.00;0.00;;;;;;;12.05;59.84;99150.34;5305440;26;20339;-86
2023/11/12 10:51:18;;;;;;;0.00;0.00;;;;;;;12.13;59.84;99156.91;5305577;26;20064;-86
2023/11/12 10:53:43;;;;;;;0.10;0.10;;;;;;;12.24;59.85;99159.81;5305279;26;20118;-86
2023/11/12 10:56:09;;;;;;;0.00;0.00;;;;;;;12.31;59.86;99152.56;5304117;26;31390;-87
2023/11/12 10:58:35;;;;;;;0.10;0.10;;;;;;;12.38;59.86;99153.94;5305342;26;20065;-86
2023/11/12 11:01:03;;;;;;;2.62;0.45;;;;;;;12.57;59.88;99159.97;5305117;26;20110;-86
2023/11/12 11:03:33;;;;;;;0.00;0.00;;;;;;;12.80;59.88;99155.34;5287585;26;20105;-86
2023/11/12 11:06:01;;;;;;;0.45;0.45;;;;;;;12.71;59.88;99164.47;5287264;26;20056;-86
2023/11/12 11:08:28;;;;;;;0.90;0.32;;;;;;;12.74;59.88;99156.50;5305394;26;20178;-86
2023/11/12 11:10:54;;;;;;;0.00;0.00;;;;;;;12.91;59.89;99145.19;5305633;26;20068;-87
2023/11/12 11:13:20;;;;;;;0.10;0.10;;;;;;;12.98;59.90;99149.16;5304811;26;20057;-87
2023/11/12 11:15:52;;;;;;;0.28;0.28;;;;;;;12.77;59.88;99156.31;5304929;26;20049;-86
2023/11/12 11:18:33;;;;;;;0.20;0.20;;;;;;;12.67;59.88;99157.72;5306844;26;20063;-87
2023/11/12 11:21:17;;;;;;;0.00;0.00;;;;;;;12.60;59.88;99154.59;5323621;26;20095;-86
2023/11/12 11:23:53;;;;;;;0.00;0.00;;;;;;;12.68;59.88;99169.00;5323189;26;20113;-86
2023/11/12 11:26:27;;;;;;;0.00;0.00;;;;;;;12.77;59.88;99166.78;5305421;26;20173;-86
2023/11/12 11:29:05;;;;;;;0.05;0.05;;;;;;;12.77;59.89;99161.56;5305317;26;20056;-86
2023/11/12 11:31:30;;;;;;;0.00;0.00;;;;;;;12.67;59.88;99165.56;5323469;26;20064;-86
2023/11/12 11:33:56;;;;;;;0.00;0.00;;;;;;;12.78;59.88;99167.66;5322908;26;20420;-85
2023/11/12 11:36:24;;;;;;;0.00;0.00;;;;;;;12.76;59.89;99174.69;5304845;26;20048;-85